createdAt,value
2023-02-19T00:01:25.000Z,21.65
2023-02-19T00:03:53.271Z,21.66
2023-02-19T00:06:20.368Z,21.65
2023-02-19T00:08:46.829Z,21.66
2023-02-19T00:11:14.353Z,21.65
2023-02-19T00:13:42.046Z,21.65
2023-02-19T00:16:09.186Z,21.65
2023-02-19T00:18:35.636Z,21.64
2023-02-19T00:21:02.671Z,21.63
2023-02-19T00:23:30.469Z,21.64
2023-02-19T00:26:01.097Z,21.65
2023-02-19T00:28:36.344Z,21.65
2023-02-19T00:31:10.090Z,21.65
2023-02-19T00:33:36.869Z,21.64
2023-02-19T00:36:04.072Z,21.65
2023-02-19T00:38:32.379Z,21.64
2023-02-19T00:40:59.176Z,21.65
2023-02-19T00:43:25.989Z,21.65
2023-02-19T00:45:53.499Z,21.65
2023-02-19T00:48:20.548Z,21.66
2023-02-19T00:50:47.004Z,21.66
2023-02-19T00:53:14.052Z,21.66
2023-02-19T00:55:40.481Z,21.66
2023-02-19T00:58:06.959Z,21.66
2023-02-19T01:00:33.714Z,21.67
2023-02-19T01:03:00.238Z,21.66
2023-02-19T01:05:26.669Z,21.67
2023-02-19T01:07:53.918Z,21.68
2023-02-19T01:10:20.658Z,21.66
2023-02-19T01:12:47.256Z,21.67
2023-02-19T01:15:13.790Z,21.68
2023-02-19T01:17:40.624Z,21.68
2023-02-19T01:20:07.303Z,21.68
2023-02-19T01:22:33.854Z,21.67
2023-02-19T01:25:00.297Z,21.69
2023-02-19T01:27:26.796Z,21.69
2023-02-19T01:29:54.373Z,21.69
2023-02-19T01:32:20.881Z,21.68
2023-02-19T01:34:47.439Z,21.69
2023-02-19T01:37:14.204Z,21.68
2023-02-19T01:39:40.897Z,21.68
2023-02-19T01:42:12.333Z,21.68
2023-02-19T01:44:38.777Z,21.67
2023-02-19T01:47:05.796Z,21.68
2023-02-19T01:49:34.749Z,21.68
2023-02-19T01:52:06.226Z,21.68
2023-02-19T01:54:34.220Z,21.68
2023-02-19T01:57:00.812Z,21.67
2023-02-19T01:59:27.304Z,21.68
2023-02-19T02:01:54.892Z,21.68
2023-02-19T02:04:22.597Z,21.66
2023-02-19T02:06:49.944Z,21.69
2023-02-19T02:09:35.169Z,21.67
2023-02-19T02:12:01.789Z,21.66
2023-02-19T02:14:29.150Z,21.68
2023-02-19T02:17:04.288Z,21.67
2023-02-19T02:19:37.004Z,21.68
2023-02-19T02:22:15.832Z,21.68
2023-02-19T02:24:49.219Z,21.68
2023-02-19T02:27:16.076Z,21.69
2023-02-19T02:30:02.070Z,21.68
2023-02-19T02:32:39.294Z,21.67
2023-02-19T02:35:07.839Z,21.67
2023-02-19T02:37:35.539Z,21.68
2023-02-19T02:40:02.653Z,21.69
2023-02-19T02:42:30.659Z,21.69
2023-02-19T02:45:38.037Z,21.69
2023-02-19T02:48:31.775Z,21.68
2023-02-19T02:50:58.208Z,21.69
2023-02-19T02:53:43.951Z,21.68
2023-02-19T02:56:10.565Z,21.68
2023-02-19T02:58:37.083Z,21.68
2023-02-19T03:01:26.061Z,21.67
2023-02-19T03:03:55.057Z,21.66
2023-02-19T03:06:21.805Z,21.68
2023-02-19T03:08:57.023Z,21.67
2023-02-19T03:11:42.657Z,21.68
2023-02-19T03:14:30.040Z,21.68
2023-02-19T03:17:16.233Z,21.68
2023-02-19T03:19:43.337Z,21.68
2023-02-19T03:22:12.137Z,21.67
2023-02-19T03:25:00.109Z,21.68
2023-02-19T03:27:27.131Z,21.68
2023-02-19T03:29:55.131Z,21.68
2023-02-19T03:32:29.457Z,21.68
2023-02-19T03:34:57.948Z,21.68
2023-02-19T03:37:27.074Z,21.69
2023-02-19T03:39:53.819Z,21.68
2023-02-19T03:42:23.354Z,21.68
2023-02-19T03:44:56.556Z,21.68
2023-02-19T03:47:30.444Z,21.68
2023-02-19T03:49:57.089Z,21.67
2023-02-19T03:52:23.687Z,21.68
2023-02-19T03:55:03.300Z,21.68
2023-02-19T03:57:36.474Z,21.69
2023-02-19T04:00:36.260Z,21.68
2023-02-19T04:03:02.971Z,21.67
2023-02-19T04:05:29.987Z,21.67
2023-02-19T04:08:02.891Z,21.68
2023-02-19T04:10:34.863Z,21.68
2023-02-19T04:13:05.902Z,21.68
2023-02-19T04:15:33.800Z,21.69
2023-02-19T04:18:00.895Z,21.67
2023-02-19T04:20:27.922Z,21.68
2023-02-19T04:22:54.366Z,21.68
2023-02-19T04:25:20.842Z,21.67
2023-02-19T04:27:47.305Z,21.68
2023-02-19T04:30:14.370Z,21.68
2023-02-19T04:32:41.070Z,21.68
2023-02-19T04:35:07.773Z,21.68
2023-02-19T04:37:34.197Z,21.69
2023-02-19T04:40:00.733Z,21.69
2023-02-19T04:42:27.697Z,21.70
2023-02-19T04:44:54.218Z,21.69
2023-02-19T04:47:20.830Z,21.69
2023-02-19T04:49:47.336Z,21.70
2023-02-19T04:52:13.767Z,21.71
2023-02-19T04:54:40.266Z,21.71
2023-02-19T04:57:06.701Z,21.72
2023-02-19T04:59:33.272Z,21.72
2023-02-19T05:02:00.010Z,21.72
2023-02-19T05:04:26.688Z,21.71
2023-02-19T05:06:53.184Z,21.71
2023-02-19T05:09:19.668Z,21.72
2023-02-19T05:11:46.388Z,21.72
2023-02-19T05:14:13.024Z,21.72
2023-02-19T05:16:39.841Z,21.71
2023-02-19T05:19:06.590Z,21.72
2023-02-19T05:21:33.277Z,21.71
2023-02-19T05:23:59.753Z,21.72
2023-02-19T05:26:26.803Z,21.73
2023-02-19T05:28:54.282Z,21.75
2023-02-19T05:31:20.989Z,21.80
2023-02-19T05:33:51.054Z,21.84
2023-02-19T05:36:19.753Z,21.86
2023-02-19T05:38:46.425Z,21.89
2023-02-19T05:41:14.153Z,21.92
2023-02-19T05:43:41.434Z,21.95
2023-02-19T05:46:07.955Z,21.94
2023-02-19T05:48:34.637Z,21.93
2023-02-19T05:51:01.927Z,21.90
2023-02-19T05:53:28.503Z,21.88
2023-02-19T05:55:54.968Z,21.85
2023-02-19T05:58:21.645Z,21.86
2023-02-19T06:00:48.133Z,21.85
2023-02-19T06:03:14.626Z,21.85
2023-02-19T06:05:41.064Z,21.86
2023-02-19T06:08:07.709Z,21.86
2023-02-19T06:10:34.148Z,21.85
2023-02-19T06:13:02.281Z,21.86
2023-02-19T06:15:28.876Z,21.87
2023-02-19T06:17:55.402Z,21.88
2023-02-19T06:20:23.277Z,21.88
2023-02-19T06:22:51.859Z,21.88
2023-02-19T06:25:19.472Z,21.90
2023-02-19T06:27:45.960Z,21.93
2023-02-19T06:30:12.510Z,21.96
2023-02-19T06:32:40.820Z,21.98
2023-02-19T06:35:07.478Z,21.99
2023-02-19T06:37:33.961Z,22.01
2023-02-19T06:40:00.447Z,22.01
2023-02-19T06:42:26.886Z,22.04
2023-02-19T06:44:53.593Z,22.04
2023-02-19T06:47:20.280Z,22.05
2023-02-19T06:49:46.742Z,22.09
2023-02-19T06:52:13.634Z,22.12
2023-02-19T06:54:40.071Z,22.14
2023-02-19T06:57:06.793Z,22.17
2023-02-19T06:59:34.152Z,22.18
2023-02-19T07:02:00.667Z,22.22
2023-02-19T07:04:27.232Z,22.23
2023-02-19T07:06:54.134Z,22.23
2023-02-19T07:09:20.745Z,22.27
2023-02-19T07:11:47.310Z,22.34
2023-02-19T07:14:15.055Z,22.39
2023-02-19T07:16:41.667Z,22.42
2023-02-19T07:19:08.263Z,22.47
2023-02-19T07:21:37.739Z,22.49
2023-02-19T07:24:05.136Z,22.50
2023-02-19T07:26:31.723Z,22.51
2023-02-19T07:28:58.324Z,22.55
2023-02-19T07:31:25.144Z,22.57
2023-02-19T07:33:51.829Z,22.61
2023-02-19T07:36:19.056Z,22.66
2023-02-19T07:38:45.896Z,22.67
2023-02-19T07:41:12.833Z,22.70
2023-02-19T07:43:39.959Z,22.72
2023-02-19T07:46:10.413Z,22.79
2023-02-19T07:48:36.954Z,22.81
2023-02-19T07:51:03.917Z,22.83
2023-02-19T07:53:30.821Z,22.83
2023-02-19T07:56:01.776Z,22.84
2023-02-19T07:58:28.868Z,22.85
2023-02-19T08:00:55.616Z,22.88
2023-02-19T08:03:22.575Z,22.93
2023-02-19T08:05:51.421Z,22.96
2023-02-19T08:08:17.935Z,23.00
2023-02-19T08:11:02.903Z,23.01
2023-02-19T08:13:30.758Z,23.03
2023-02-19T08:16:16.959Z,23.04
2023-02-19T08:18:45.932Z,23.08
2023-02-19T08:21:12.675Z,23.12
2023-02-19T08:23:39.313Z,23.14
2023-02-19T08:26:06.124Z,23.15
2023-02-19T08:28:32.689Z,23.19
2023-02-19T08:31:03.591Z,23.25
2023-02-19T08:33:30.807Z,23.27
2023-02-19T08:35:57.231Z,23.31
2023-02-19T08:38:23.750Z,23.32
2023-02-19T08:40:50.291Z,23.32
2023-02-19T08:43:17.026Z,23.32
2023-02-19T08:45:44.170Z,23.32
2023-02-19T08:48:11.094Z,23.35
2023-02-19T08:50:37.801Z,23.38
2023-02-19T08:53:04.672Z,23.40
2023-02-19T08:55:31.703Z,23.46
2023-02-19T08:57:58.809Z,23.50
2023-02-19T09:00:25.254Z,23.53
2023-02-19T09:02:51.723Z,23.55
2023-02-19T09:05:18.306Z,23.57
2023-02-19T09:07:44.814Z,23.60
2023-02-19T09:10:12.194Z,23.61
2023-02-19T09:12:40.097Z,23.62
2023-02-19T09:15:06.684Z,23.64
2023-02-19T09:17:33.206Z,23.65
2023-02-19T09:19:59.667Z,23.70
2023-02-19T09:22:26.311Z,23.73
2023-02-19T09:24:52.777Z,23.75
2023-02-19T09:27:19.634Z,23.78
2023-02-19T09:29:46.134Z,23.81
2023-02-19T09:32:12.673Z,23.82
2023-02-19T09:34:39.351Z,23.83
2023-02-19T09:37:06.337Z,23.85
2023-02-19T09:39:33.156Z,23.88
2023-02-19T09:42:01.466Z,23.89
2023-02-19T09:44:29.554Z,23.93
2023-02-19T09:46:56.158Z,23.95
2023-02-19T09:49:24.180Z,23.99
2023-02-19T09:51:52.833Z,24.01
2023-02-19T09:54:23.141Z,24.04
2023-02-19T09:56:51.883Z,24.04
2023-02-19T09:59:22.429Z,24.07
2023-02-19T10:01:49.339Z,24.07
2023-02-19T10:04:15.775Z,24.08
2023-02-19T10:06:42.577Z,24.09
2023-02-19T10:09:22.841Z,24.09
2023-02-19T10:11:49.606Z,24.12
2023-02-19T10:14:23.321Z,24.14
2023-02-19T10:16:49.853Z,24.17
2023-02-19T10:19:16.379Z,24.20
2023-02-19T10:21:42.875Z,24.23
2023-02-19T10:24:10.488Z,24.26
2023-02-19T10:26:37.040Z,24.30
2023-02-19T10:29:03.828Z,24.30
2023-02-19T10:31:30.864Z,24.33
2023-02-19T10:33:57.937Z,24.34
2023-02-19T10:36:25.859Z,24.36
2023-02-19T10:38:52.285Z,24.39
2023-02-19T10:41:20.958Z,24.43
2023-02-19T10:43:55.081Z,24.45
2023-02-19T10:46:26.682Z,24.48
2023-02-19T10:49:00.902Z,24.47
2023-02-19T10:51:31.557Z,24.44
2023-02-19T10:54:17.757Z,24.41
2023-02-19T10:56:44.363Z,24.35
2023-02-19T10:59:26.950Z,24.32
2023-02-19T11:02:03.962Z,24.29
2023-02-19T11:04:34.201Z,24.29
2023-02-19T11:07:10.605Z,24.27
2023-02-19T11:09:40.847Z,24.28
2023-02-19T11:12:09.213Z,24.31
2023-02-19T11:14:36.169Z,24.33
2023-02-19T11:17:04.846Z,24.34
2023-02-19T11:19:51.563Z,24.39
2023-02-19T11:22:18.933Z,24.40
2023-02-19T11:24:48.126Z,24.43
2023-02-19T11:27:24.119Z,24.43
2023-02-19T11:29:50.818Z,24.44
2023-02-19T11:32:20.382Z,24.45
2023-02-19T11:34:47.510Z,24.48
2023-02-19T11:37:17.452Z,24.51
2023-02-19T11:39:48.121Z,24.53
2023-02-19T11:42:31.411Z,24.54
2023-02-19T11:45:11.048Z,24.55
2023-02-19T11:47:56.253Z,24.57
2023-02-19T11:50:31.755Z,24.57
2023-02-19T11:53:04.092Z,24.56
2023-02-19T11:55:30.657Z,24.56
2023-02-19T11:58:10.823Z,24.57
2023-02-19T12:00:41.704Z,24.59
2023-02-19T12:03:27.117Z,24.60
2023-02-19T12:05:56.883Z,24.62
2023-02-19T12:08:42.248Z,24.64
2023-02-19T12:11:35.196Z,24.66
2023-02-19T12:14:08.163Z,24.65
2023-02-19T12:16:43.266Z,24.69
2023-02-19T12:19:09.937Z,24.72
2023-02-19T12:21:39.140Z,24.75
2023-02-19T12:24:17.625Z,24.76
2023-02-19T12:26:56.829Z,24.79
2023-02-19T12:29:25.031Z,24.83
2023-02-19T12:31:54.573Z,24.85
2023-02-19T12:34:24.665Z,24.84
2023-02-19T12:36:57.285Z,24.86
2023-02-19T12:39:26.980Z,24.85
2023-02-19T12:42:00.237Z,24.85
2023-02-19T12:44:32.423Z,24.84
2023-02-19T12:46:59.734Z,24.82
2023-02-19T12:49:27.569Z,24.81
2023-02-19T12:51:57.418Z,24.79
2023-02-19T12:54:28.372Z,24.77
2023-02-19T12:56:54.914Z,24.75
2023-02-19T12:59:26.964Z,24.74
2023-02-19T13:01:58.309Z,24.70
2023-02-19T13:04:40.367Z,24.69
2023-02-19T13:07:09.882Z,24.67
2023-02-19T13:09:49.517Z,24.65
2023-02-19T13:12:25.139Z,24.63
2023-02-19T13:15:03.460Z,24.61
2023-02-19T13:17:41.968Z,24.59
2023-02-19T13:20:31.866Z,24.57
2023-02-19T13:23:19.344Z,24.56
2023-02-19T13:25:51.421Z,24.55
2023-02-19T13:28:17.867Z,24.52
2023-02-19T13:31:00.584Z,24.49
2023-02-19T13:33:31.906Z,24.46
2023-02-19T13:36:05.906Z,24.46
2023-02-19T13:38:33.535Z,24.44
2023-02-19T13:41:00.227Z,24.43
2023-02-19T13:43:28.024Z,24.42
2023-02-19T13:45:55.737Z,24.41
2023-02-19T13:48:25.261Z,24.39
2023-02-19T13:51:10.686Z,24.39
2023-02-19T13:53:44.677Z,24.37
2023-02-19T13:56:34.624Z,24.35
2023-02-19T13:59:20.037Z,24.33
2023-02-19T14:01:49.602Z,24.31
2023-02-19T14:04:19.304Z,24.30
2023-02-19T14:07:03.972Z,24.28
2023-02-19T14:09:43.898Z,24.24
2023-02-19T14:12:10.530Z,24.22
2023-02-19T14:14:43.451Z,24.17
2023-02-19T14:17:10.101Z,24.13
2023-02-19T14:19:42.385Z,24.09
2023-02-19T14:22:27.785Z,24.12
2023-02-19T14:24:54.258Z,24.11
2023-02-19T14:27:21.145Z,24.11
2023-02-19T14:29:47.765Z,24.08
2023-02-19T14:32:18.420Z,24.06
2023-02-19T14:34:45.063Z,24.05
2023-02-19T14:37:16.310Z,24.04
2023-02-19T14:39:43.632Z,24.04
2023-02-19T14:42:15.751Z,24.02
2023-02-19T14:44:47.420Z,24.02
2023-02-19T14:47:14.625Z,24.01
2023-02-19T14:49:45.736Z,24.00
2023-02-19T14:52:17.727Z,24.00
2023-02-19T14:54:57.312Z,23.98
2023-02-19T14:57:25.722Z,23.96
2023-02-19T14:59:54.048Z,23.95
2023-02-19T15:02:25.858Z,23.92
2023-02-19T15:04:52.510Z,23.93
2023-02-19T15:07:21.018Z,23.92
2023-02-19T15:09:48.345Z,23.91
2023-02-19T15:12:24.616Z,23.89
2023-02-19T15:14:51.687Z,23.88
2023-02-19T15:17:27.384Z,23.87
2023-02-19T15:19:54.421Z,23.86
2023-02-19T15:22:22.488Z,23.84
2023-02-19T15:24:48.970Z,23.83
2023-02-19T15:27:19.443Z,23.82
2023-02-19T15:29:46.714Z,23.81
2023-02-19T15:32:21.795Z,23.81
2023-02-19T15:34:58.653Z,23.80
2023-02-19T15:37:25.971Z,23.79
2023-02-19T15:39:52.684Z,23.79
2023-02-19T15:42:26.811Z,23.76
2023-02-19T15:45:01.945Z,23.75
2023-02-19T15:47:33.336Z,23.76
2023-02-19T15:50:02.880Z,23.73
2023-02-19T15:52:49.000Z,23.73
2023-02-19T15:55:21.499Z,23.71
2023-02-19T15:57:50.834Z,23.70
2023-02-19T16:00:19.229Z,23.70
2023-02-19T16:02:46.227Z,23.69
2023-02-19T16:05:13.981Z,23.69
2023-02-19T16:07:40.612Z,23.67
2023-02-19T16:10:17.797Z,23.66
2023-02-19T16:12:44.255Z,23.65
2023-02-19T16:15:14.228Z,23.65
2023-02-19T16:17:44.100Z,23.63
2023-02-19T16:20:17.775Z,23.62
2023-02-19T16:22:44.489Z,23.62
2023-02-19T16:25:21.787Z,23.61
2023-02-19T16:27:48.303Z,23.61
2023-02-19T16:30:17.850Z,23.59
2023-02-19T16:32:47.136Z,23.57
2023-02-19T16:35:32.567Z,23.57
2023-02-19T16:37:59.321Z,23.57
2023-02-19T16:40:35.065Z,23.55
2023-02-19T16:43:23.735Z,23.54
2023-02-19T16:45:50.407Z,23.54
2023-02-19T16:48:16.852Z,23.54
2023-02-19T16:50:43.388Z,23.52
2023-02-19T16:53:20.571Z,23.52
2023-02-19T16:55:47.064Z,23.51
2023-02-19T16:58:13.769Z,23.50
2023-02-19T17:00:40.667Z,23.50
2023-02-19T17:03:10.838Z,23.49
2023-02-19T17:05:37.497Z,23.48
2023-02-19T17:08:04.687Z,23.46
2023-02-19T17:10:34.292Z,23.47
2023-02-19T17:13:00.727Z,23.43
2023-02-19T17:15:27.251Z,23.41
2023-02-19T17:17:54.317Z,23.41
2023-02-19T17:20:27.433Z,23.41
2023-02-19T17:22:54.441Z,23.40
2023-02-19T17:25:21.760Z,23.41
2023-02-19T17:27:48.229Z,23.42
2023-02-19T17:30:23.586Z,23.41
2023-02-19T17:32:50.102Z,23.41
2023-02-19T17:35:16.532Z,23.41
2023-02-19T17:37:43.124Z,23.40
2023-02-19T17:40:30.698Z,23.40
2023-02-19T17:42:59.113Z,23.39
2023-02-19T17:45:25.660Z,23.38
2023-02-19T17:47:53.139Z,23.37
2023-02-19T17:50:20.980Z,23.37
2023-02-19T17:52:47.431Z,23.37
2023-02-19T17:55:15.724Z,23.37
2023-02-19T17:57:42.868Z,23.43
2023-02-19T18:00:10.940Z,23.51
2023-02-19T18:02:40.771Z,23.53
2023-02-19T18:05:08.022Z,23.55
2023-02-19T18:07:34.549Z,23.54
2023-02-19T18:10:01.468Z,23.54
2023-02-19T18:12:28.468Z,23.52
2023-02-19T18:14:56.564Z,23.51
2023-02-19T18:17:23.700Z,23.48
2023-02-19T18:19:52.760Z,23.46
2023-02-19T18:22:19.408Z,23.43
2023-02-19T18:24:46.732Z,23.41
2023-02-19T18:27:13.610Z,23.40
2023-02-19T18:29:40.352Z,23.40
2023-02-19T18:32:06.962Z,23.38
2023-02-19T18:34:34.223Z,23.36
2023-02-19T18:37:00.988Z,23.35
2023-02-19T18:39:27.416Z,23.34
2023-02-19T18:41:53.986Z,23.33
2023-02-19T18:44:21.013Z,23.32
2023-02-19T18:46:47.760Z,23.32
2023-02-19T18:49:14.456Z,23.31
2023-02-19T18:51:41.157Z,23.30
2023-02-19T18:54:07.928Z,23.29
2023-02-19T18:56:41.081Z,23.28
2023-02-19T18:59:07.812Z,23.29
2023-02-19T19:01:34.263Z,23.27
2023-02-19T19:04:00.954Z,23.26
2023-02-19T19:06:27.518Z,23.25
2023-02-19T19:08:54.041Z,23.24
2023-02-19T19:11:22.636Z,23.24
2023-02-19T19:13:49.152Z,23.23
2023-02-19T19:16:15.586Z,23.23
2023-02-19T19:18:42.195Z,23.23
2023-02-19T19:21:09.593Z,23.22
2023-02-19T19:23:36.316Z,23.22
2023-02-19T19:26:06.111Z,23.20
2023-02-19T19:28:33.066Z,23.22
2023-02-19T19:30:59.839Z,23.21
2023-02-19T19:33:28.017Z,23.20
2023-02-19T19:35:55.100Z,23.20
2023-02-19T19:38:21.554Z,23.20
2023-02-19T19:40:48.145Z,23.19
2023-02-19T19:43:15.026Z,23.20
2023-02-19T19:45:41.493Z,23.20
2023-02-19T19:48:08.096Z,23.20
2023-02-19T19:50:35.112Z,23.18
2023-02-19T19:53:01.643Z,23.20
2023-02-19T19:55:28.265Z,23.18
2023-02-19T19:57:54.789Z,23.18
2023-02-19T20:00:23.393Z,23.19
2023-02-19T20:02:49.944Z,23.17
2023-02-19T20:05:16.957Z,23.17
2023-02-19T20:07:44.448Z,23.18
2023-02-19T20:10:12.886Z,23.18
2023-02-19T20:12:40.087Z,23.16
2023-02-19T20:15:07.113Z,23.17
2023-02-19T20:17:33.680Z,23.17
2023-02-19T20:20:00.265Z,23.18
2023-02-19T20:22:26.816Z,23.16
2023-02-19T20:24:53.720Z,23.17
2023-02-19T20:27:20.898Z,23.17
2023-02-19T20:29:47.446Z,23.16
2023-02-19T20:32:14.884Z,23.15
2023-02-19T20:34:41.338Z,23.15
2023-02-19T20:37:07.823Z,23.15
2023-02-19T20:39:34.693Z,23.15
2023-02-19T20:42:02.111Z,23.15
2023-02-19T20:44:29.053Z,23.15
2023-02-19T20:46:56.046Z,23.14
2023-02-19T20:49:23.240Z,23.15
2023-02-19T20:51:54.780Z,23.15
2023-02-19T20:54:22.506Z,23.14
2023-02-19T20:56:53.003Z,23.14
2023-02-19T20:59:20.483Z,23.14
2023-02-19T21:01:47.419Z,23.14
2023-02-19T21:04:14.326Z,23.13
2023-02-19T21:06:41.458Z,23.13
2023-02-19T21:09:07.983Z,23.14
2023-02-19T21:11:34.579Z,23.13
2023-02-19T21:14:01.301Z,23.14
2023-02-19T21:16:28.735Z,23.14
2023-02-19T21:18:55.521Z,23.13
2023-02-19T21:21:25.291Z,23.13
2023-02-19T21:23:54.292Z,23.13
2023-02-19T21:26:21.074Z,23.13
2023-02-19T21:28:52.155Z,23.13
2023-02-19T21:31:19.244Z,23.12
2023-02-19T21:33:45.701Z,23.12
2023-02-19T21:36:12.496Z,23.12
2023-02-19T21:38:39.331Z,23.11
2023-02-19T21:41:05.914Z,23.11
2023-02-19T21:43:32.352Z,23.11
2023-02-19T21:45:58.992Z,23.10
2023-02-19T21:48:25.504Z,23.10
2023-02-19T21:50:52.008Z,23.09
2023-02-19T21:53:18.458Z,23.09
2023-02-19T21:55:57.724Z,23.08
2023-02-19T21:58:24.559Z,23.08
2023-02-19T22:00:51.043Z,23.08
2023-02-19T22:03:18.163Z,23.08
2023-02-19T22:05:44.634Z,23.07
2023-02-19T22:08:11.118Z,23.08
2023-02-19T22:10:40.789Z,23.07
2023-02-19T22:13:07.356Z,23.06
2023-02-19T22:15:33.839Z,23.06
2023-02-19T22:18:00.475Z,23.06
2023-02-19T22:20:26.983Z,23.05
2023-02-19T22:22:53.456Z,23.06
2023-02-19T22:25:20.238Z,23.06
2023-02-19T22:27:47.475Z,23.06
2023-02-19T22:30:14.186Z,23.06
2023-02-19T22:32:41.340Z,23.05
2023-02-19T22:35:08.111Z,23.07
2023-02-19T22:37:34.730Z,23.06
2023-02-19T22:40:02.163Z,23.10
2023-02-19T22:42:29.342Z,23.13
2023-02-19T22:44:55.836Z,23.16
2023-02-19T22:47:22.347Z,23.16
2023-02-19T22:49:49.323Z,23.17
2023-02-19T22:52:15.824Z,23.16
2023-02-19T22:54:42.256Z,23.15
2023-02-19T22:57:08.773Z,23.13
2023-02-19T22:59:35.240Z,23.12
2023-02-19T23:02:01.758Z,23.11
2023-02-19T23:04:28.422Z,23.08
2023-02-19T23:06:55.072Z,23.06
2023-02-19T23:09:27.289Z,23.06
2023-02-19T23:11:54.182Z,23.04
2023-02-19T23:14:21.227Z,23.04
2023-02-19T23:16:47.763Z,23.02
2023-02-19T23:19:15.117Z,23.02
2023-02-19T23:21:42.389Z,23.01
2023-02-19T23:24:09.317Z,23.01
2023-02-19T23:26:35.959Z,22.99
2023-02-19T23:29:02.430Z,22.99
2023-02-19T23:31:29.057Z,22.99
2023-02-19T23:33:55.920Z,22.97
2023-02-19T23:36:23.833Z,22.98
2023-02-19T23:38:50.376Z,22.97
2023-02-19T23:41:17.327Z,22.97
2023-02-19T23:43:43.784Z,22.95
2023-02-19T23:46:13.253Z,22.96
2023-02-19T23:48:40.076Z,22.95
2023-02-19T23:51:07.873Z,22.95
2023-02-19T23:53:34.403Z,22.94
2023-02-19T23:56:00.956Z,22.93
2023-02-19T23:58:27.409Z,22.93
